Time;durP1;ratioP1;P1;durP2;ratioP2;P2;SDS_P1;SDS_P2;PMS_P1;PMS_P2;Temp;Humidity;BMP_temperature;BMP_pressure;BME280_temperature;BME280_humidity;BME280_pressure;Samples;Min_cycle;Max_cycle;Signal;HPM_P1;HPM_P2
2022/07/27 00:09:18;;;;;;;3.92;3.10;;;18.30;99.90;;;;;;20806846;28;20356;-57
2022/07/27 00:19:22;;;;;;;4.10;2.97;;;18.10;99.90;;;;;;20802780;28;20081;-57
2022/07/27 00:29:24;;;;;;;4.57;3.63;;;18.00;99.90;;;;;;20803799;28;20099;-57
2022/07/27 00:39:27;;;;;;;5.10;3.70;;;17.90;99.90;;;;;;20802789;28;20083;-57
2022/07/27 00:49:30;;;;;;;4.70;4.28;;;17.80;99.90;;;;;;20803787;28;20119;-59
2022/07/27 00:59:32;;;;;;;5.47;4.40;;;17.70;99.90;;;;;;20801008;28;20033;-57
2022/07/27 01:19:58;;;;;;;9.00;5.88;;;17.40;99.90;;;;;;20799784;28;20091;-57
2022/07/27 01:30:00;;;;;;;11.60;9.15;;;17.10;99.90;;;;;;20796489;28;20071;-57
2022/07/27 01:40:03;;;;;;;15.18;13.38;;;17.00;99.90;;;;;;20799245;28;20069;-57
2022/07/27 01:50:06;;;;;;;18.65;16.15;;;17.10;99.90;;;;;;20797345;28;20037;-58
2022/07/27 02:00:10;;;;;;;18.60;15.77;;;17.00;99.90;;;;;;20812977;28;20037;-57
2022/07/27 02:10:15;;;;;;;25.80;19.63;;;16.90;99.90;;;;;;20796085;28;20037;-57
2022/07/27 02:20:21;;;;;;;14.73;12.48;;;16.80;99.90;;;;;;20797191;28;20038;-57
2022/07/27 02:30:23;;;;;;;12.52;9.15;;;16.60;99.90;;;;;;20795219;28;20111;-57
2022/07/27 02:40:25;;;;;;;8.52;7.22;;;16.50;99.90;;;;;;20796287;28;20038;-57
2022/07/27 02:50:28;;;;;;;5.00;4.28;;;16.50;99.90;;;;;;20795468;28;20033;-57
2022/07/27 03:00:31;;;;;;;5.10;4.18;;;16.50;99.90;;;;;;20794730;28;20029;-56
2022/07/27 03:10:34;;;;;;;4.38;3.97;;;16.30;99.90;;;;;;20794645;28;20037;-56
2022/07/27 03:20:36;;;;;;;3.63;3.22;;;16.20;99.90;;;;;;20794102;28;20451;-57
2022/07/27 03:30:39;;;;;;;3.85;3.45;;;16.10;99.90;;;;;;20821024;28;20049;-56
2022/07/27 03:40:41;;;;;;;6.13;3.25;;;15.90;99.90;;;;;;20808272;28;20038;-56
2022/07/27 03:50:43;;;;;;;4.38;3.20;;;16.00;99.90;;;;;;20799268;28;20030;-57
2022/07/27 04:00:46;;;;;;;4.45;3.47;;;16.10;99.90;;;;;;20806316;28;20095;-57
2022/07/27 04:10:49;;;;;;;4.32;3.03;;;16.00;99.90;;;;;;20805301;28;20332;-57
2022/07/27 04:20:51;;;;;;;6.63;5.90;;;16.20;99.90;;;;;;20804897;28;20535;-57
2022/07/27 04:30:54;;;;;;;4.60;3.60;;;16.30;99.90;;;;;;20804644;28;20102;-57
2022/07/27 04:40:56;;;;;;;3.90;3.50;;;16.20;99.90;;;;;;20802606;28;20107;-56
2022/07/27 04:50:58;;;;;;;7.50;5.15;;;16.50;99.90;;;;;;20802207;28;20037;-57
2022/07/27 05:01:03;;;;;;;4.45;3.70;;;16.50;99.90;;;;;;20801599;28;20067;-58
2022/07/27 05:11:05;;;;;;;9.68;7.55;;;16.80;99.90;;;;;;20800665;28;20096;-57
2022/07/27 05:21:08;;;;;;;5.85;4.15;;;17.00;99.90;;;;;;20800340;28;20037;-57
2022/07/27 05:31:10;;;;;;;5.00;3.83;;;17.20;99.90;;;;;;20799357;28;20095;-57
2022/07/27 05:41:13;;;;;;;3.80;3.15;;;17.40;99.90;;;;;;20799013;28;20532;-57
2022/07/27 05:51:15;;;;;;;4.65;3.95;;;17.80;99.90;;;;;;20797980;28;20479;-58
2022/07/27 06:01:18;;;;;;;4.50;3.00;;;18.20;99.90;;;;;;20797651;28;20095;-58
2022/07/27 06:11:21;;;;;;;3.67;3.10;;;18.80;99.90;;;;;;20796899;28;20041;-58
2022/07/27 06:21:25;;;;;;;3.80;3.40;;;19.00;99.90;;;;;;20796840;28;20037;-57
2022/07/27 06:31:27;;;;;;;3.03;2.38;;;19.30;99.90;;;;;;20779865;28;20071;-60
2022/07/27 06:41:30;;;;;;;4.32;2.95;;;19.50;99.00;;;;;;20796185;28;20038;-58
2022/07/27 06:51:32;;;;;;;3.97;2.92;;;19.70;99.50;;;;;;20795742;28;20038;-59
2022/07/27 07:01:35;;;;;;;3.72;2.72;;;20.00;98.70;;;;;;20800968;28;20402;-58
2022/07/27 07:11:37;;;;;;;3.28;2.50;;;20.40;97.60;;;;;;20809762;28;20038;-58
2022/07/27 07:21:40;;;;;;;3.80;2.63;;;20.60;96.40;;;;;;20809080;28;20037;-58
2022/07/27 07:31:42;;;;;;;4.22;2.60;;;23.10;93.20;;;;;;20808217;28;20087;-58
2022/07/27 07:41:45;;;;;;;3.13;2.80;;;23.10;92.80;;;;;;20807316;28;20037;-58
2022/07/27 07:51:47;;;;;;;2.50;2.22;;;23.70;90.30;;;;;;20806879;28;20025;-63
2022/07/27 08:01:50;;;;;;;4.43;2.63;;;24.10;92.50;;;;;;20806587;28;20068;-59
2022/07/27 08:11:53;;;;;;;3.28;2.70;;;25.40;90.60;;;;;;20804716;28;20037;-59
2022/07/27 08:21:56;;;;;;;5.22;3.10;;;26.50;90.00;;;;;;20805322;28;20087;-60
2022/07/27 08:31:59;;;;;;;3.42;2.97;;;27.50;86.80;;;;;;20804247;28;20063;-60
2022/07/27 08:42:08;;;;;;;4.00;3.40;;;28.10;83.50;;;;;;20802972;28;20033;-59
2022/07/27 08:52:11;;;;;;;6.13;4.25;;;27.40;84.00;;;;;;20802180;28;20403;-58
2022/07/27 09:02:15;;;;;;;4.55;4.00;;;27.60;85.30;;;;;;20801489;28;20041;-58
2022/07/27 09:12:18;;;;;;;4.75;4.35;;;28.70;85.20;;;;;;20800875;28;20068;-61
2022/07/27 09:22:45;;;;;;;3.65;3.33;;;28.80;80.90;;;;;;20796282;28;20883;-58
2022/07/27 09:33:02;;;;;;;4.85;4.13;;;28.40;79.70;;;;;;20781477;28;20057;-58
2022/07/27 09:43:09;;;;;;;;;;;27.40;80.00;;;;;;20799110;28;20033;-58
2022/07/27 09:53:22;;;;;;;8.40;6.90;;;25.10;87.80;;;;;;20798015;28;19913;-57
2022/07/27 10:03:26;;;;;;;7.93;5.88;;;24.10;91.10;;;;;;20797272;28;20029;-59
2022/07/27 10:13:28;;;;;;;6.75;6.00;;;23.10;93.40;;;;;;20796848;28;20294;-58
2022/07/27 10:23:33;;;;;;;7.03;5.97;;;22.60;94.60;;;;;;20796712;28;20080;-58
2022/07/27 10:33:44;;;;;;;7.90;5.53;;;22.50;94.80;;;;;;20800872;28;20509;-58
2022/07/27 10:43:49;;;;;;;6.38;4.90;;;22.70;95.60;;;;;;20812229;28;20556;-59
2022/07/27 10:53:51;;;;;;;7.55;5.57;;;23.60;95.10;;;;;;20811785;28;20087;-59
2022/07/27 11:04:06;;;;;;;8.00;6.60;;;25.20;92.20;;;;;;20811208;28;20037;-61
2022/07/27 11:14:10;;;;;;;6.97;6.00;;;25.30;93.80;;;;;;20810501;28;20033;-59
2022/07/27 11:24:17;;;;;;;7.97;6.00;;;27.10;89.20;;;;;;20808632;28;20041;-59
2022/07/27 11:34:32;;;;;;;6.10;5.47;;;26.50;89.30;;;;;;20808604;28;20034;-60
2022/07/27 11:44:38;;;;;;;6.63;5.57;;;26.40;88.60;;;;;;20805331;28;20045;-59
2022/07/27 11:54:41;;;;;;;5.60;4.97;;;26.00;89.70;;;;;;20807379;28;20449;-59
2022/07/27 12:04:46;;;;;;;4.35;3.95;;;25.90;88.40;;;;;;20806492;28;20037;-61
2022/07/27 12:14:53;;;;;;;5.88;4.70;;;24.80;90.50;;;;;;20805275;28;20061;-60
2022/07/27 12:24:57;;;;;;;6.13;4.38;;;24.50;90.30;;;;;;20800879;28;20095;-60
2022/07/27 12:35:00;;;;;;;5.43;4.05;;;24.30;91.30;;;;;;20803573;28;20483;-59
2022/07/27 12:45:17;;;;;;;4.40;3.50;;;24.30;91.30;;;;;;20786386;28;20033;-61
2022/07/27 12:55:21;;;;;;;7.67;5.70;;;25.30;90.50;;;;;;20800986;28;20069;-60
2022/07/27 13:05:25;;;;;;;4.38;3.97;;;25.00;89.20;;;;;;20801125;28;20517;-59
2022/07/27 13:15:28;;;;;;;5.95;4.30;;;24.10;91.30;;;;;;20800630;28;20049;-58
2022/07/27 13:25:31;;;;;;;6.68;3.90;;;24.10;91.00;;;;;;20800309;28;20037;-59
2022/07/27 13:35:34;;;;;;;6.00;4.53;;;23.50;91.40;;;;;;20798958;28;20037;-58
2022/07/27 13:45:36;;;;;;;6.32;4.15;;;23.90;91.50;;;;;;20798793;28;20029;-58
2022/07/27 13:55:38;;;;;;;8.30;5.55;;;24.60;90.80;;;;;;20798004;28;20107;-59
2022/07/27 14:05:42;;;;;;;6.07;4.15;;;25.20;89.40;;;;;;20797490;28;20091;-58
2022/07/27 14:15:46;;;;;;;4.45;3.83;;;26.60;86.60;;;;;;20797477;28;20403;-58
2022/07/27 14:25:48;;;;;;;9.55;4.10;;;26.10;86.10;;;;;;20793089;28;20046;-59
2022/07/27 14:35:52;;;;;;;6.43;4.30;;;26.40;88.40;;;;;;20796245;28;20049;-62
2022/07/27 14:45:57;;;;;;;5.35;4.72;;;27.50;83.00;;;;;;20796277;28;20364;-58
2022/07/27 14:56:00;;;;;;;5.30;4.32;;;26.80;84.70;;;;;;20795651;28;20083;-58
2022/07/27 15:06:04;;;;;;;5.65;4.03;;;25.40;86.00;;;;;;20795266;28;20041;-58
2022/07/27 15:16:06;;;;;;;8.90;5.78;;;24.60;90.10;;;;;;20794405;28;20052;-59
2022/07/27 15:26:11;;;;;;;8.38;5.82;;;24.70;90.70;;;;;;20808493;28;20033;-59
2022/07/27 15:36:13;;;;;;;6.25;5.60;;;24.50;90.90;;;;;;20808602;28;20890;-58
2022/07/27 15:46:17;;;;;;;6.15;4.57;;;24.30;91.20;;;;;;20808178;28;20087;-58
2022/07/27 15:56:19;;;;;;;5.53;4.90;;;24.80;91.10;;;;;;20807245;28;20033;-58
2022/07/27 16:06:23;;;;;;;6.63;5.20;;;24.60;91.00;;;;;;20804760;28;20041;-61
2022/07/27 16:16:29;;;;;;;6.40;5.65;;;24.50;90.90;;;;;;20806919;28;20065;-58
2022/07/27 16:26:31;;;;;;;6.75;5.97;;;25.40;91.00;;;;;;20804902;28;20037;-58
2022/07/27 16:36:33;;;;;;;8.10;5.93;;;24.80;90.50;;;;;;20796093;28;20045;-58
2022/07/27 16:46:36;;;;;;;7.15;6.45;;;24.00;92.00;;;;;;20803532;28;20041;-58
2022/07/27 16:56:39;;;;;;;6.70;6.00;;;23.70;93.00;;;;;;20802111;28;20088;-58
2022/07/27 17:06:42;;;;;;;7.28;5.65;;;23.60;93.10;;;;;;20801756;28;20395;-58
2022/07/27 17:16:47;;;;;;;6.90;6.22;;;23.40;93.30;;;;;;20800973;28;20049;-58
2022/07/27 17:26:50;;;;;;;8.13;6.80;;;23.00;94.00;;;;;;20800447;28;20490;-58
2022/07/27 17:36:53;;;;;;;7.70;5.85;;;22.80;94.80;;;;;;20799569;28;20486;-58
2022/07/27 17:46:56;;;;;;;10.02;7.65;;;22.60;95.30;;;;;;20798548;28;20029;-58
2022/07/27 17:56:58;;;;;;;7.93;6.55;;;22.30;95.50;;;;;;20798594;28;20091;-58
2022/07/27 18:07:01;;;;;;;7.60;6.15;;;21.80;96.40;;;;;;20797673;28;20087;-58
2022/07/27 18:17:04;;;;;;;7.28;5.63;;;21.40;97.70;;;;;;20852765;28;20098;-58
2022/07/27 18:27:06;;;;;;;9.05;6.18;;;21.00;98.70;;;;;;20864545;28;20098;-58
2022/07/27 18:37:08;;;;;;;8.43;6.53;;;20.80;99.30;;;;;;20857840;28;20041;-58
2022/07/27 18:47:10;;;;;;;8.65;6.32;;;20.50;99.70;;;;;;20868104;28;20037;-58
2022/07/27 18:57:13;;;;;;;6.82;6.13;;;20.10;99.90;;;;;;20865263;28;20095;-58
2022/07/27 19:07:16;;;;;;;8.75;6.10;;;19.30;99.90;;;;;;20878364;28;20037;-58
2022/07/27 19:17:19;;;;;;;13.27;8.15;;;18.60;99.90;;;;;;20875460;28;20553;-63
2022/07/27 19:27:22;;;;;;;10.48;6.75;;;18.20;99.90;;;;;;20880823;28;20037;-62
2022/07/27 19:37:28;;;;;;;8.52;6.68;;;17.80;99.90;;;;;;20880279;28;20111;-62
2022/07/27 19:47:31;;;;;;;7.70;6.63;;;17.70;99.90;;;;;;20870001;28;20033;-63
2022/07/27 19:57:35;;;;;;;8.70;6.22;;;17.60;99.90;;;;;;20875810;28;20053;-62
2022/07/27 20:07:39;;;;;;;9.25;5.38;;;17.70;99.90;;;;;;20876860;28;20059;-63
2022/07/27 20:17:41;;;;;;;6.50;5.13;;;17.70;99.90;;;;;;20862822;28;20033;-60
2022/07/27 20:27:45;;;;;;;8.45;6.10;;;17.70;99.90;;;;;;20874895;28;20147;-60
2022/07/27 20:37:48;;;;;;;8.52;6.68;;;17.60;99.90;;;;;;20853316;28;20087;-58
2022/07/27 20:47:50;;;;;;;8.02;6.05;;;17.60;99.90;;;;;;20870689;28;20059;-60
2022/07/27 20:57:53;;;;;;;7.00;5.72;;;17.80;99.90;;;;;;20867695;28;20041;-58
2022/07/27 21:07:56;;;;;;;5.20;4.57;;;17.90;99.90;;;;;;20864850;28;20099;-60
2022/07/27 21:17:59;;;;;;;6.47;4.63;;;17.90;99.90;;;;;;20811421;28;20045;-58
2022/07/27 21:28:03;;;;;;;5.47;4.45;;;17.90;99.90;;;;;;20799654;28;20064;-58
2022/07/27 21:38:05;;;;;;;7.93;5.10;;;17.70;99.90;;;;;;20800236;28;20037;-58
2022/07/27 21:48:08;;;;;;;7.50;5.80;;;17.80;99.90;;;;;;20797153;28;20045;-58
2022/07/27 21:58:11;;;;;;;6.45;5.20;;;17.90;99.90;;;;;;20796626;28;20407;-58
2022/07/27 22:08:14;;;;;;;7.97;6.90;;;17.70;99.90;;;;;;20797665;28;20033;-58
2022/07/27 22:18:17;;;;;;;8.27;7.00;;;17.50;99.90;;;;;;20728473;28;20042;-59
2022/07/27 22:28:20;;;;;;;7.57;6.70;;;17.00;99.90;;;;;;20720868;28;20042;-58
2022/07/27 22:38:25;;;;;;;7.85;6.90;;;16.70;99.90;;;;;;20700080;28;20042;-58
2022/07/27 22:48:28;;;;;;;8.73;7.32;;;16.60;99.90;;;;;;20731406;28;20088;-58
2022/07/27 22:58:31;;;;;;;8.38;7.03;;;16.70;99.90;;;;;;20729583;28;20042;-58
2022/07/27 23:08:34;;;;;;;7.82;7.03;;;16.60;99.90;;;;;;20715757;28;20045;-58
2022/07/27 23:18:37;;;;;;;8.52;7.13;;;16.50;99.90;;;;;;20802730;28;20525;-58
2022/07/27 23:28:39;;;;;;;8.00;6.85;;;16.50;99.90;;;;;;20809448;28;20507;-58
2022/07/27 23:38:42;;;;;;;8.32;7.18;;;16.50;99.90;;;;;;20808355;28;20029;-58
2022/07/27 23:48:44;;;;;;;8.40;7.03;;;16.50;99.90;;;;;;20807840;28;20037;-59
2022/07/27 23:58:46;;;;;;;7.25;6.35;;;16.60;99.90;;;;;;20807102;28;20030;-59
